sensor_id;sensor_type;location;lat;lon;timestamp;pressure;altitude;pressure_sealevel;temperature;humidity
64230;BME280;50547;49.498;0.092;2023-05-02T00:00:47;1019.67;;;13.44;84.22
64230;BME280;50547;49.498;0.092;2023-05-02T00:03:16;1019.65;;;13.39;84.43
64230;BME280;50547;49.498;0.092;2023-05-02T00:05:45;1019.59;;;13.32;84.88
64230;BME280;50547;49.498;0.092;2023-05-02T00:08:15;1019.61;;;13.26;85.12
64230;BME280;50547;49.498;0.092;2023-05-02T00:10:44;1019.65;;;13.26;84.95
64230;BME280;50547;49.498;0.092;2023-05-02T00:13:13;1019.63;;;13.27;84.68
64230;BME280;50547;49.498;0.092;2023-05-02T00:15:43;1019.67;;;13.28;84.55
64230;BME280;50547;49.498;0.092;2023-05-02T00:18:12;1019.65;;;13.40;83.90
64230;BME280;50547;49.498;0.092;2023-05-02T00:20:41;1019.65;;;13.41;83.73
64230;BME280;50547;49.498;0.092;2023-05-02T00:23:10;1019.67;;;13.50;83.41
64230;BME280;50547;49.498;0.092;2023-05-02T00:25:43;1019.65;;;13.63;82.82
64230;BME280;50547;49.498;0.092;2023-05-02T00:28:13;1019.67;;;13.74;82.32
64230;BME280;50547;49.498;0.092;2023-05-02T00:30:42;1019.67;;;13.67;82.79
64230;BME280;50547;49.498;0.092;2023-05-02T00:33:12;1019.65;;;13.56;83.77
64230;BME280;50547;49.498;0.092;2023-05-02T00:35:41;1019.65;;;13.54;84.41
64230;BME280;50547;49.498;0.092;2023-05-02T00:38:10;1019.61;;;13.52;84.70
64230;BME280;50547;49.498;0.092;2023-05-02T00:40:43;1019.59;;;13.49;85.15
64230;BME280;50547;49.498;0.092;2023-05-02T00:43:13;1019.55;;;13.75;83.66
64230;BME280;50547;49.498;0.092;2023-05-02T00:45:43;1019.57;;;13.74;83.81
64230;BME280;50547;49.498;0.092;2023-05-02T00:48:13;1019.61;;;13.57;84.75
64230;BME280;50547;49.498;0.092;2023-05-02T00:50:42;1019.57;;;13.48;85.45
64230;BME280;50547;49.498;0.092;2023-05-02T00:53:11;1019.55;;;13.53;84.67
64230;BME280;50547;49.498;0.092;2023-05-02T00:55:41;1019.57;;;13.42;85.42
64230;BME280;50547;49.498;0.092;2023-05-02T00:58:12;1019.53;;;13.31;86.04
64230;BME280;50547;49.498;0.092;2023-05-02T01:00:53;1019.55;;;13.28;85.96
64230;BME280;50547;49.498;0.092;2023-05-02T01:03:31;1019.59;;;13.18;86.37
64230;BME280;50547;49.498;0.092;2023-05-02T01:06:14;1019.59;;;13.14;86.21
64230;BME280;50547;49.498;0.092;2023-05-02T01:08:51;1019.63;;;13.22;85.81
64230;BME280;50547;49.498;0.092;2023-05-02T01:11:30;1019.61;;;13.27;85.61
64230;BME280;50547;49.498;0.092;2023-05-02T01:14:04;1019.61;;;13.48;84.66
64230;BME280;50547;49.498;0.092;2023-05-02T01:16:36;1019.63;;;13.59;84.14
64230;BME280;50547;49.498;0.092;2023-05-02T01:19:11;1019.63;;;13.67;83.88
64230;BME280;50547;49.498;0.092;2023-05-02T01:21:45;1019.59;;;13.55;84.72
64230;BME280;50547;49.498;0.092;2023-05-02T01:24:20;1019.65;;;13.61;84.46
64230;BME280;50547;49.498;0.092;2023-05-02T01:26:58;1019.55;;;13.50;85.33
64230;BME280;50547;49.498;0.092;2023-05-02T01:29:29;1019.59;;;13.24;86.89
64230;BME280;50547;49.498;0.092;2023-05-02T01:32:00;1019.57;;;13.19;86.96
64230;BME280;50547;49.498;0.092;2023-05-02T01:34:31;1019.53;;;13.27;85.98
64230;BME280;50547;49.498;0.092;2023-05-02T01:37:01;1019.55;;;13.20;86.30
64230;BME280;50547;49.498;0.092;2023-05-02T01:39:32;1019.51;;;13.13;86.74
64230;BME280;50547;49.498;0.092;2023-05-02T01:42:04;1019.51;;;12.97;87.60
64230;BME280;50547;49.498;0.092;2023-05-02T01:44:34;1019.43;;;12.91;87.75
64230;BME280;50547;49.498;0.092;2023-05-02T01:47:05;1019.43;;;12.93;87.27
64230;BME280;50547;49.498;0.092;2023-05-02T01:49:36;1019.51;;;13.00;86.77
64230;BME280;50547;49.498;0.092;2023-05-02T01:52:07;1019.61;;;13.09;86.43
64230;BME280;50547;49.498;0.092;2023-05-02T01:54:39;1019.61;;;13.29;85.52
64230;BME280;50547;49.498;0.092;2023-05-02T01:57:10;1019.61;;;13.49;84.64
64230;BME280;50547;49.498;0.092;2023-05-02T01:59:41;1019.63;;;13.58;84.31
64230;BME280;50547;49.498;0.092;2023-05-02T02:02:12;1019.63;;;13.60;84.30
64230;BME280;50547;49.498;0.092;2023-05-02T02:04:43;1019.59;;;13.50;84.40
64230;BME280;50547;49.498;0.092;2023-05-02T02:07:13;1019.59;;;13.35;84.95
64230;BME280;50547;49.498;0.092;2023-05-02T02:09:43;1019.65;;;13.31;85.20
64230;BME280;50547;49.498;0.092;2023-05-02T02:12:19;1019.69;;;13.32;85.10
64230;BME280;50547;49.498;0.092;2023-05-02T02:14:55;1019.73;;;13.41;84.76
64230;BME280;50547;49.498;0.092;2023-05-02T02:17:36;1019.71;;;13.55;84.17
64230;BME280;50547;49.498;0.092;2023-05-02T02:20:08;1019.77;;;13.67;83.84
64230;BME280;50547;49.498;0.092;2023-05-02T02:22:39;1019.75;;;13.67;83.84
64230;BME280;50547;49.498;0.092;2023-05-02T02:25:13;1019.77;;;13.73;83.57
64230;BME280;50547;49.498;0.092;2023-05-02T02:27:43;1019.83;;;13.75;83.63
64230;BME280;50547;49.498;0.092;2023-05-02T02:30:12;1019.88;;;13.61;84.40
64230;BME280;50547;49.498;0.092;2023-05-02T02:32:41;1019.92;;;13.60;84.55
64230;BME280;50547;49.498;0.092;2023-05-02T02:35:10;1019.96;;;13.45;84.99
64230;BME280;50547;49.498;0.092;2023-05-02T02:37:45;1019.92;;;13.51;84.62
64230;BME280;50547;49.498;0.092;2023-05-02T02:40:20;1019.98;;;13.41;85.04
64230;BME280;50547;49.498;0.092;2023-05-02T02:42:57;1020.04;;;13.49;84.55
64230;BME280;50547;49.498;0.092;2023-05-02T02:45:34;1020.02;;;13.54;84.33
64230;BME280;50547;49.498;0.092;2023-05-02T02:48:15;1019.98;;;13.58;84.00
64230;BME280;50547;49.498;0.092;2023-05-02T02:50:56;1019.96;;;13.57;83.85
64230;BME280;50547;49.498;0.092;2023-05-02T02:53:46;1019.98;;;13.41;84.37
64230;BME280;50547;49.498;0.092;2023-05-02T02:56:26;1020.02;;;13.22;85.14
64230;BME280;50547;49.498;0.092;2023-05-02T02:59:01;1020.08;;;13.20;85.28
64230;BME280;50547;49.498;0.092;2023-05-02T03:01:33;1020.10;;;13.16;85.50
64230;BME280;50547;49.498;0.092;2023-05-02T03:04:04;1020.08;;;13.14;85.60
64230;BME280;50547;49.498;0.092;2023-05-02T03:06:35;1020.12;;;13.19;85.45
64230;BME280;50547;49.498;0.092;2023-05-02T03:09:05;1020.10;;;13.25;85.04
64230;BME280;50547;49.498;0.092;2023-05-02T03:11:34;1020.12;;;13.22;85.22
64230;BME280;50547;49.498;0.092;2023-05-02T03:14:03;1020.12;;;13.24;85.19
64230;BME280;50547;49.498;0.092;2023-05-02T03:16:34;1020.14;;;13.20;85.63
64230;BME280;50547;49.498;0.092;2023-05-02T03:19:05;1020.10;;;13.18;85.54
64230;BME280;50547;49.498;0.092;2023-05-02T03:21:34;1020.12;;;13.19;85.56
64230;BME280;50547;49.498;0.092;2023-05-02T03:24:04;1020.14;;;13.20;85.33
64230;BME280;50547;49.498;0.092;2023-05-02T03:26:33;1020.14;;;13.17;85.50
64230;BME280;50547;49.498;0.092;2023-05-02T03:29:02;1020.14;;;13.13;85.93
64230;BME280;50547;49.498;0.092;2023-05-02T03:31:31;1020.14;;;13.11;86.14
64230;BME280;50547;49.498;0.092;2023-05-02T03:34:00;1020.14;;;13.23;85.67
64230;BME280;50547;49.498;0.092;2023-05-02T03:36:29;1020.12;;;13.33;85.31
64230;BME280;50547;49.498;0.092;2023-05-02T03:38:58;1020.20;;;13.42;85.06
64230;BME280;50547;49.498;0.092;2023-05-02T03:41:28;1020.18;;;13.36;85.15
64230;BME280;50547;49.498;0.092;2023-05-02T03:43:57;1020.18;;;13.53;84.63
64230;BME280;50547;49.498;0.092;2023-05-02T03:46:26;1020.22;;;13.55;84.60
64230;BME280;50547;49.498;0.092;2023-05-02T03:48:56;1020.25;;;13.55;84.48
64230;BME280;50547;49.498;0.092;2023-05-02T03:51:25;1020.23;;;13.51;84.73
64230;BME280;50547;49.498;0.092;2023-05-02T03:53:54;1020.27;;;13.67;84.02
64230;BME280;50547;49.498;0.092;2023-05-02T03:56:24;1020.22;;;13.72;83.71
64230;BME280;50547;49.498;0.092;2023-05-02T03:58:53;1020.16;;;13.72;83.76
64230;BME280;50547;49.498;0.092;2023-05-02T04:01:22;1020.20;;;13.65;84.20
64230;BME280;50547;49.498;0.092;2023-05-02T04:03:51;1020.16;;;13.70;84.05
64230;BME280;50547;49.498;0.092;2023-05-02T04:06:20;1020.22;;;13.80;83.62
64230;BME280;50547;49.498;0.092;2023-05-02T04:08:49;1020.14;;;13.73;83.62
64230;BME280;50547;49.498;0.092;2023-05-02T04:11:18;1020.18;;;13.72;83.48
64230;BME280;50547;49.498;0.092;2023-05-02T04:13:47;1020.16;;;13.70;83.54
64230;BME280;50547;49.498;0.092;2023-05-02T04:16:17;1020.16;;;13.64;83.98
64230;BME280;50547;49.498;0.092;2023-05-02T04:18:46;1020.16;;;13.65;83.95
64230;BME280;50547;49.498;0.092;2023-05-02T04:21:15;1020.18;;;13.48;85.02
64230;BME280;50547;49.498;0.092;2023-05-02T04:23:44;1020.18;;;13.65;83.97
64230;BME280;50547;49.498;0.092;2023-05-02T04:26:13;1020.18;;;13.68;83.74
64230;BME280;50547;49.498;0.092;2023-05-02T04:28:43;1020.16;;;13.68;83.48
64230;BME280;50547;49.498;0.092;2023-05-02T04:31:12;1020.23;;;13.64;83.53
64230;BME280;50547;49.498;0.092;2023-05-02T04:33:41;1020.25;;;13.62;83.55
64230;BME280;50547;49.498;0.092;2023-05-02T04:36:10;1020.23;;;13.39;84.54
64230;BME280;50547;49.498;0.092;2023-05-02T04:38:39;1020.31;;;13.12;86.10
64230;BME280;50547;49.498;0.092;2023-05-02T04:41:08;1020.37;;;13.21;85.04
64230;BME280;50547;49.498;0.092;2023-05-02T04:43:37;1020.39;;;13.24;84.80
64230;BME280;50547;49.498;0.092;2023-05-02T04:46:06;1020.39;;;13.23;84.96
64230;BME280;50547;49.498;0.092;2023-05-02T04:48:36;1020.43;;;13.25;84.85
64230;BME280;50547;49.498;0.092;2023-05-02T04:51:05;1020.47;;;13.28;84.87
64230;BME280;50547;49.498;0.092;2023-05-02T04:53:34;1020.53;;;13.13;85.52
64230;BME280;50547;49.498;0.092;2023-05-02T04:56:04;1020.53;;;13.14;85.39
64230;BME280;50547;49.498;0.092;2023-05-02T04:58:33;1020.55;;;13.12;85.39
64230;BME280;50547;49.498;0.092;2023-05-02T05:01:02;1020.61;;;13.04;85.59
64230;BME280;50547;49.498;0.092;2023-05-02T05:03:31;1020.63;;;12.96;86.13
64230;BME280;50547;49.498;0.092;2023-05-02T05:06:00;1020.65;;;13.09;85.31
64230;BME280;50547;49.498;0.092;2023-05-02T05:08:29;1020.59;;;13.05;85.46
64230;BME280;50547;49.498;0.092;2023-05-02T05:10:59;1020.59;;;12.91;86.37
64230;BME280;50547;49.498;0.092;2023-05-02T05:13:28;1020.67;;;13.01;85.74
64230;BME280;50547;49.498;0.092;2023-05-02T05:15:57;1020.71;;;13.18;85.17
64230;BME280;50547;49.498;0.092;2023-05-02T05:18:26;1020.71;;;13.17;85.45
64230;BME280;50547;49.498;0.092;2023-05-02T05:20:55;1020.67;;;13.16;85.67
64230;BME280;50547;49.498;0.092;2023-05-02T05:23:25;1020.67;;;13.07;86.20
64230;BME280;50547;49.498;0.092;2023-05-02T05:25:54;1020.73;;;13.24;85.37
64230;BME280;50547;49.498;0.092;2023-05-02T05:28:23;1020.77;;;13.41;84.79
64230;BME280;50547;49.498;0.092;2023-05-02T05:30:52;1020.80;;;13.46;84.82
64230;BME280;50547;49.498;0.092;2023-05-02T05:33:21;1020.93;;;13.36;85.45
64230;BME280;50547;49.498;0.092;2023-05-02T05:35:50;1020.93;;;13.45;85.00
64230;BME280;50547;49.498;0.092;2023-05-02T05:38:19;1020.97;;;13.38;85.71
64230;BME280;50547;49.498;0.092;2023-05-02T05:40:49;1020.99;;;13.43;85.58
64230;BME280;50547;49.498;0.092;2023-05-02T05:43:18;1021.07;;;13.53;84.84
64230;BME280;50547;49.498;0.092;2023-05-02T05:45:47;1021.05;;;13.56;85.08
64230;BME280;50547;49.498;0.092;2023-05-02T05:48:16;1021.11;;;13.16;86.86
64230;BME280;50547;49.498;0.092;2023-05-02T05:50:45;1021.15;;;13.39;85.47
64230;BME280;50547;49.498;0.092;2023-05-02T05:53:14;1021.18;;;13.64;84.31
64230;BME280;50547;49.498;0.092;2023-05-02T05:55:43;1021.24;;;13.70;84.46
64230;BME280;50547;49.498;0.092;2023-05-02T05:58:13;1021.24;;;13.75;84.49
64230;BME280;50547;49.498;0.092;2023-05-02T06:00:42;1021.24;;;13.93;83.84
64230;BME280;50547;49.498;0.092;2023-05-02T06:03:11;1021.24;;;14.13;83.04
64230;BME280;50547;49.498;0.092;2023-05-02T06:05:40;1021.24;;;14.04;83.68
64230;BME280;50547;49.498;0.092;2023-05-02T06:08:09;1021.28;;;14.11;83.52
64230;BME280;50547;49.498;0.092;2023-05-02T06:10:38;1021.30;;;14.24;83.23
64230;BME280;50547;49.498;0.092;2023-05-02T06:13:08;1021.22;;;14.37;82.59
64230;BME280;50547;49.498;0.092;2023-05-02T06:15:37;1021.28;;;14.19;83.46
64230;BME280;50547;49.498;0.092;2023-05-02T06:18:06;1021.28;;;14.34;82.52
64230;BME280;50547;49.498;0.092;2023-05-02T06:20:35;1021.28;;;14.56;81.97
64230;BME280;50547;49.498;0.092;2023-05-02T06:23:04;1021.26;;;14.39;83.11
64230;BME280;50547;49.498;0.092;2023-05-02T06:25:36;1021.26;;;14.56;82.11
64230;BME280;50547;49.498;0.092;2023-05-02T06:28:05;1021.28;;;14.88;81.12
64230;BME280;50547;49.498;0.092;2023-05-02T06:30:34;1021.32;;;15.03;81.00
64230;BME280;50547;49.498;0.092;2023-05-02T06:33:04;1021.32;;;15.27;80.42
64230;BME280;50547;49.498;0.092;2023-05-02T06:35:33;1021.32;;;15.36;80.61
64230;BME280;50547;49.498;0.092;2023-05-02T06:38:02;1021.36;;;15.61;80.21
64230;BME280;50547;49.498;0.092;2023-05-02T06:40:33;1021.36;;;15.69;79.87
64230;BME280;50547;49.498;0.092;2023-05-02T06:43:02;1021.38;;;15.64;80.35
64230;BME280;50547;49.498;0.092;2023-05-02T06:45:31;1021.44;;;15.90;79.36
64230;BME280;50547;49.498;0.092;2023-05-02T06:48:00;1021.48;;;15.80;79.92
64230;BME280;50547;49.498;0.092;2023-05-02T06:50:29;1021.46;;;15.75;79.94
64230;BME280;50547;49.498;0.092;2023-05-02T06:52:59;1021.44;;;16.08;78.63
64230;BME280;50547;49.498;0.092;2023-05-02T06:55:28;1021.54;;;16.15;78.48
64230;BME280;50547;49.498;0.092;2023-05-02T06:57:58;1021.58;;;15.99;78.82
64230;BME280;50547;49.498;0.092;2023-05-02T07:00:27;1021.56;;;15.40;80.07
64230;BME280;50547;49.498;0.092;2023-05-02T07:02:56;1021.58;;;15.62;79.58
64230;BME280;50547;49.498;0.092;2023-05-02T07:05:25;1021.58;;;15.90;78.15
64230;BME280;50547;49.498;0.092;2023-05-02T07:07:54;1021.58;;;15.66;79.08
64230;BME280;50547;49.498;0.092;2023-05-02T07:10:24;1021.60;;;15.99;78.05
64230;BME280;50547;49.498;0.092;2023-05-02T07:12:53;1021.62;;;15.69;78.89
64230;BME280;50547;49.498;0.092;2023-05-02T07:15:22;1021.62;;;15.77;78.64
64230;BME280;50547;49.498;0.092;2023-05-02T07:17:51;1021.69;;;15.76;78.41
64230;BME280;50547;49.498;0.092;2023-05-02T07:20:20;1021.69;;;15.69;78.27
64230;BME280;50547;49.498;0.092;2023-05-02T07:22:49;1021.69;;;15.73;78.39
64230;BME280;50547;49.498;0.092;2023-05-02T07:25:18;1021.69;;;15.74;78.21
64230;BME280;50547;49.498;0.092;2023-05-02T07:27:48;1021.69;;;15.72;78.29
64230;BME280;50547;49.498;0.092;2023-05-02T07:30:17;1021.65;;;15.89;77.65
64230;BME280;50547;49.498;0.092;2023-05-02T07:32:46;1021.69;;;16.01;76.76
64230;BME280;50547;49.498;0.092;2023-05-02T07:35:16;1021.60;;;16.64;75.31
64230;BME280;50547;49.498;0.092;2023-05-02T07:37:45;1021.62;;;16.44;76.05
64230;BME280;50547;49.498;0.092;2023-05-02T07:40:11;1021.58;;;16.76;74.87
64230;BME280;50547;49.498;0.092;2023-05-02T07:42:40;1021.65;;;17.00;74.12
64230;BME280;50547;49.498;0.092;2023-05-02T07:45:09;1021.69;;;16.98;74.61
64230;BME280;50547;49.498;0.092;2023-05-02T07:47:39;1021.67;;;16.92;74.77
64230;BME280;50547;49.498;0.092;2023-05-02T07:50:09;1021.67;;;17.39;73.30
64230;BME280;50547;49.498;0.092;2023-05-02T07:52:38;1021.63;;;17.61;72.64
64230;BME280;50547;49.498;0.092;2023-05-02T07:55:08;1021.67;;;18.04;70.86
64230;BME280;50547;49.498;0.092;2023-05-02T07:57:37;1021.69;;;18.19;71.05
64230;BME280;50547;49.498;0.092;2023-05-02T08:00:05;1021.63;;;17.79;71.80
64230;BME280;50547;49.498;0.092;2023-05-02T08:02:34;1021.65;;;18.08;70.79
64230;BME280;50547;49.498;0.092;2023-05-02T08:05:04;1021.67;;;17.80;71.47
64230;BME280;50547;49.498;0.092;2023-05-02T08:07:34;1021.67;;;17.87;71.34
64230;BME280;50547;49.498;0.092;2023-05-02T08:10:03;1021.71;;;17.75;70.71
64230;BME280;50547;49.498;0.092;2023-05-02T08:12:37;1021.69;;;17.62;71.62
64230;BME280;50547;49.498;0.092;2023-05-02T08:15:07;1021.75;;;17.73;71.16
64230;BME280;50547;49.498;0.092;2023-05-02T08:17:37;1021.75;;;17.30;72.22
64230;BME280;50547;49.498;0.092;2023-05-02T08:20:07;1021.79;;;17.64;70.85
64230;BME280;50547;49.498;0.092;2023-05-02T08:22:36;1021.77;;;17.61;70.60
64230;BME280;50547;49.498;0.092;2023-05-02T08:25:05;1021.81;;;17.69;70.48
64230;BME280;50547;49.498;0.092;2023-05-02T08:27:35;1021.79;;;18.18;69.36
64230;BME280;50547;49.498;0.092;2023-05-02T08:30:05;1021.75;;;18.48;68.73
64230;BME280;50547;49.498;0.092;2023-05-02T08:32:35;1021.79;;;18.73;68.29
64230;BME280;50547;49.498;0.092;2023-05-02T08:35:05;1021.75;;;18.87;67.27
64230;BME280;50547;49.498;0.092;2023-05-02T08:37:34;1021.73;;;18.88;67.71
64230;BME280;50547;49.498;0.092;2023-05-02T08:40:04;1021.69;;;18.26;69.72
64230;BME280;50547;49.498;0.092;2023-05-02T08:42:34;1021.65;;;18.43;68.40
64230;BME280;50547;49.498;0.092;2023-05-02T08:45:21;1021.67;;;18.36;68.62
64230;BME280;50547;49.498;0.092;2023-05-02T08:47:51;1021.69;;;18.36;69.00
64230;BME280;50547;49.498;0.092;2023-05-02T08:50:22;1021.73;;;18.24;68.80
64230;BME280;50547;49.498;0.092;2023-05-02T08:52:55;1021.75;;;18.63;68.25
64230;BME280;50547;49.498;0.092;2023-05-02T08:55:25;1021.77;;;19.08;66.61
64230;BME280;50547;49.498;0.092;2023-05-02T08:57:56;1021.77;;;19.53;65.64
64230;BME280;50547;49.498;0.092;2023-05-02T09:00:26;1021.75;;;19.36;65.92
64230;BME280;50547;49.498;0.092;2023-05-02T09:03:05;1021.75;;;19.71;65.41
64230;BME280;50547;49.498;0.092;2023-05-02T09:05:39;1021.79;;;19.82;65.52
64230;BME280;50547;49.498;0.092;2023-05-02T09:08:08;1021.85;;;20.04;65.45
64230;BME280;50547;49.498;0.092;2023-05-02T09:10:36;1021.87;;;20.44;63.70
64230;BME280;50547;49.498;0.092;2023-05-02T09:13:41;1021.89;;;20.47;63.56
64230;BME280;50547;49.498;0.092;2023-05-02T09:16:12;1021.87;;;20.14;64.36
64230;BME280;50547;49.498;0.092;2023-05-02T09:18:43;1021.79;;;19.89;64.93
64230;BME280;50547;49.498;0.092;2023-05-02T09:21:14;1021.81;;;20.03;65.17
64230;BME280;50547;49.498;0.092;2023-05-02T09:23:44;1021.83;;;20.04;64.18
64230;BME280;50547;49.498;0.092;2023-05-02T09:26:16;1021.79;;;19.23;66.55
64230;BME280;50547;49.498;0.092;2023-05-02T09:28:47;1021.81;;;19.67;66.39
64230;BME280;50547;49.498;0.092;2023-05-02T09:31:17;1021.77;;;20.20;63.82
64230;BME280;50547;49.498;0.092;2023-05-02T09:33:47;1021.83;;;20.31;63.64
64230;BME280;50547;49.498;0.092;2023-05-02T09:36:19;1021.83;;;20.15;63.90
64230;BME280;50547;49.498;0.092;2023-05-02T09:38:46;1021.83;;;20.35;63.29
64230;BME280;50547;49.498;0.092;2023-05-02T09:41:16;1021.87;;;20.09;63.60
64230;BME280;50547;49.498;0.092;2023-05-02T09:43:54;1021.93;;;19.94;64.60
64230;BME280;50547;49.498;0.092;2023-05-02T09:46:23;1021.99;;;19.82;65.54
64230;BME280;50547;49.498;0.092;2023-05-02T09:48:54;1021.99;;;19.74;64.86
64230;BME280;50547;49.498;0.092;2023-05-02T09:51:24;1022.05;;;19.78;65.21
64230;BME280;50547;49.498;0.092;2023-05-02T09:53:53;1022.03;;;20.17;63.35
64230;BME280;50547;49.498;0.092;2023-05-02T09:56:23;1022.07;;;20.09;63.87
64230;BME280;50547;49.498;0.092;2023-05-02T09:59:10;1022.03;;;20.21;63.58
64230;BME280;50547;49.498;0.092;2023-05-02T10:01:40;1022.05;;;19.57;65.16
64230;BME280;50547;49.498;0.092;2023-05-02T10:04:11;1022.05;;;20.10;65.00
64230;BME280;50547;49.498;0.092;2023-05-02T10:06:47;1022.09;;;20.24;63.79
64230;BME280;50547;49.498;0.092;2023-05-02T10:09:19;1022.10;;;20.62;63.49
64230;BME280;50547;49.498;0.092;2023-05-02T10:11:51;1022.10;;;20.96;61.30
64230;BME280;50547;49.498;0.092;2023-05-02T10:14:22;1022.10;;;20.49;63.70
64230;BME280;50547;49.498;0.092;2023-05-02T10:16:56;1022.12;;;20.69;63.61
64230;BME280;50547;49.498;0.092;2023-05-02T10:19:29;1022.14;;;20.55;62.78
64230;BME280;50547;49.498;0.092;2023-05-02T10:22:01;1022.14;;;20.74;61.54
64230;BME280;50547;49.498;0.092;2023-05-02T10:24:31;1022.12;;;19.90;65.64
64230;BME280;50547;49.498;0.092;2023-05-02T10:26:59;1022.14;;;19.80;65.66
64230;BME280;50547;49.498;0.092;2023-05-02T10:29:28;1022.14;;;19.63;65.76
64230;BME280;50547;49.498;0.092;2023-05-02T10:32:00;1022.14;;;19.03;68.90
64230;BME280;50547;49.498;0.092;2023-05-02T10:34:31;1022.18;;;19.00;68.06
64230;BME280;50547;49.498;0.092;2023-05-02T10:37:01;1022.20;;;19.01;69.02
64230;BME280;50547;49.498;0.092;2023-05-02T10:39:31;1022.28;;;18.40;69.93
64230;BME280;50547;49.498;0.092;2023-05-02T10:42:02;1022.24;;;18.83;68.42
64230;BME280;50547;49.498;0.092;2023-05-02T10:44:33;1022.22;;;18.62;68.90
64230;BME280;50547;49.498;0.092;2023-05-02T10:47:17;1022.22;;;18.56;68.72
64230;BME280;50547;49.498;0.092;2023-05-02T10:49:51;1022.26;;;18.41;69.62
64230;BME280;50547;49.498;0.092;2023-05-02T10:52:29;1022.22;;;18.85;68.38
64230;BME280;50547;49.498;0.092;2023-05-02T10:55:15;1022.22;;;19.46;65.13
64230;BME280;50547;49.498;0.092;2023-05-02T10:58:51;1022.20;;;19.49;64.71
64230;BME280;50547;49.498;0.092;2023-05-02T11:01:36;1022.28;;;19.18;66.80
64230;BME280;50547;49.498;0.092;2023-05-02T11:04:06;1022.32;;;19.28;66.93
64230;BME280;50547;49.498;0.092;2023-05-02T11:07:16;1022.28;;;19.33;66.46
64230;BME280;50547;49.498;0.092;2023-05-02T11:09:45;1022.32;;;18.69;69.19
64230;BME280;50547;49.498;0.092;2023-05-02T11:12:42;1022.40;;;18.83;67.50
64230;BME280;50547;49.498;0.092;2023-05-02T11:15:12;1022.40;;;19.04;66.31
64230;BME280;50547;49.498;0.092;2023-05-02T11:18:11;1022.40;;;19.04;66.50
64230;BME280;50547;49.498;0.092;2023-05-02T11:20:41;1022.36;;;19.17;65.90
64230;BME280;50547;49.498;0.092;2023-05-02T11:23:20;1022.38;;;19.05;66.73
64230;BME280;50547;49.498;0.092;2023-05-02T11:25:49;1022.32;;;19.52;65.10
64230;BME280;50547;49.498;0.092;2023-05-02T11:28:51;1022.34;;;20.12;62.75
64230;BME280;50547;49.498;0.092;2023-05-02T11:31:53;1022.34;;;20.60;61.76
64230;BME280;50547;49.498;0.092;2023-05-02T11:34:19;1022.34;;;20.82;62.05
64230;BME280;50547;49.498;0.092;2023-05-02T11:36:48;1022.38;;;19.78;65.30
64230;BME280;50547;49.498;0.092;2023-05-02T11:39:18;1022.44;;;18.34;72.13
64230;BME280;50547;49.498;0.092;2023-05-02T11:41:47;1022.44;;;18.18;72.14
64230;BME280;50547;49.498;0.092;2023-05-02T11:44:17;1022.42;;;17.90;70.66
64230;BME280;50547;49.498;0.092;2023-05-02T11:46:43;1022.44;;;18.03;69.58
64230;BME280;50547;49.498;0.092;2023-05-02T11:49:12;1022.42;;;18.35;69.09
64230;BME280;50547;49.498;0.092;2023-05-02T11:51:38;1022.42;;;18.50;69.15
64230;BME280;50547;49.498;0.092;2023-05-02T11:54:08;1022.40;;;18.58;68.46
64230;BME280;50547;49.498;0.092;2023-05-02T11:56:37;1022.46;;;18.81;67.40
64230;BME280;50547;49.498;0.092;2023-05-02T11:59:03;1022.48;;;18.81;68.29
64230;BME280;50547;49.498;0.092;2023-05-02T12:01:32;1022.50;;;18.19;71.71
64230;BME280;50547;49.498;0.092;2023-05-02T12:04:02;1022.46;;;18.43;69.85
64230;BME280;50547;49.498;0.092;2023-05-02T12:06:32;1022.50;;;18.49;70.58
64230;BME280;50547;49.498;0.092;2023-05-02T12:09:06;1022.48;;;18.77;68.61
64230;BME280;50547;49.498;0.092;2023-05-02T12:11:36;1022.48;;;18.90;67.78
64230;BME280;50547;49.498;0.092;2023-05-02T12:14:05;1022.48;;;19.41;65.38
64230;BME280;50547;49.498;0.092;2023-05-02T12:16:35;1022.50;;;19.42;64.67
64230;BME280;50547;49.498;0.092;2023-05-02T12:19:04;1022.42;;;19.36;65.95
64230;BME280;50547;49.498;0.092;2023-05-02T12:21:33;1022.46;;;19.69;64.52
64230;BME280;50547;49.498;0.092;2023-05-02T12:24:03;1022.42;;;19.25;66.65
64230;BME280;50547;49.498;0.092;2023-05-02T12:26:32;1022.50;;;18.96;68.15
64230;BME280;50547;49.498;0.092;2023-05-02T12:29:01;1022.52;;;18.62;69.94
64230;BME280;50547;49.498;0.092;2023-05-02T12:31:31;1022.50;;;18.63;67.20
64230;BME280;50547;49.498;0.092;2023-05-02T12:34:00;1022.52;;;18.36;69.48
64230;BME280;50547;49.498;0.092;2023-05-02T12:36:29;1022.48;;;18.65;67.95
64230;BME280;50547;49.498;0.092;2023-05-02T12:38:58;1022.48;;;18.64;69.11
64230;BME280;50547;49.498;0.092;2023-05-02T12:41:32;1022.40;;;19.20;67.25
64230;BME280;50547;49.498;0.092;2023-05-02T12:44:34;1022.40;;;19.53;66.60
64230;BME280;50547;49.498;0.092;2023-05-02T12:47:04;1022.40;;;19.73;65.52
64230;BME280;50547;49.498;0.092;2023-05-02T12:49:47;1022.38;;;19.73;65.56
64230;BME280;50547;49.498;0.092;2023-05-02T12:52:16;1022.34;;;19.49;64.92
64230;BME280;50547;49.498;0.092;2023-05-02T12:54:46;1022.36;;;18.91;67.09
64230;BME280;50547;49.498;0.092;2023-05-02T12:57:23;1022.34;;;18.78;66.56
64230;BME280;50547;49.498;0.092;2023-05-02T12:59:52;1022.26;;;19.14;65.57
64230;BME280;50547;49.498;0.092;2023-05-02T13:02:21;1022.26;;;19.64;63.40
64230;BME280;50547;49.498;0.092;2023-05-02T13:04:50;1022.32;;;19.61;62.04
64230;BME280;50547;49.498;0.092;2023-05-02T13:07:19;1022.20;;;19.73;62.96
64230;BME280;50547;49.498;0.092;2023-05-02T13:09:49;1022.24;;;20.48;60.06
64230;BME280;50547;49.498;0.092;2023-05-02T13:12:18;1022.16;;;21.03;58.86
64230;BME280;50547;49.498;0.092;2023-05-02T13:14:47;1022.20;;;20.67;59.24
64230;BME280;50547;49.498;0.092;2023-05-02T13:17:16;1022.18;;;20.46;60.74
64230;BME280;50547;49.498;0.092;2023-05-02T13:19:45;1022.12;;;20.84;59.98
64230;BME280;50547;49.498;0.092;2023-05-02T13:22:14;1022.16;;;21.45;56.68
64230;BME280;50547;49.498;0.092;2023-05-02T13:24:44;1022.18;;;20.49;60.39
64230;BME280;50547;49.498;0.092;2023-05-02T13:27:14;1022.14;;;20.36;60.91
64230;BME280;50547;49.498;0.092;2023-05-02T13:29:43;1022.10;;;20.42;60.59
64230;BME280;50547;49.498;0.092;2023-05-02T13:32:12;1022.07;;;21.00;57.93